<?xml version="1.0"?>
<gpx xmlns:xsi="http://www.w3.org/2001/XMLSchema-instance" xmlns:xsd="http://www.w3.org/2001/XMLSchema" version="1.1" creator="Quo v2" xmlns="http://www.topografix.com/GPX/1/1">
  <metadata>
    <desc>GPX file generated with Quo.</desc>
    <link href="http://www.mapyx.com">
      <text>Mapyx</text>
    </link>
    <time>2022-05-30T23:54:20.9014963+01:00</time>
  </metadata>
  <trk>
    <name>Track from Segments</name>
    <trkseg>
      <trkpt lat="53.8478404343909" lon="-1.83866110610727">
        <ele>94.5780111412725</ele>
        <time>2022-05-29T00:08:23.7613646</time>
        <name>WPT 001</name>
        <desc />
      </trkpt>
      <trkpt lat="53.8481210570416" lon="-1.83880594939985">
        <ele>93.4880036529619</ele>
        <time>2022-05-29T00:08:55.8459361</time>
        <name>WPT 002</name>
        <desc />
      </trkpt>
      <trkpt lat="53.8482721049467" lon="-1.83884184982557">
        <ele>92.6480036529625</ele>
        <time>2022-05-29T00:09:04.6711209</time>
        <name>WPT 003</name>
        <desc />
      </trkpt>
      <trkpt lat="53.8482727897478" lon="-1.83935257723414">
        <ele>91.887786419149</ele>
        <time>2022-05-29T00:09:10.33191</time>
        <name>WPT 004</name>
        <desc />
      </trkpt>
      <trkpt lat="53.8482085637408" lon="-1.83971762974834">
        <ele>91.7442789711834</ele>
        <time>2022-05-29T00:09:13.5384391</time>
        <name>WPT 005</name>
        <desc />
      </trkpt>
      <trkpt lat="53.848187576377" lon="-1.84015547763092">
        <ele>91.2518481071605</ele>
        <time>2022-05-29T00:09:15.38053</time>
        <name>WPT 006</name>
        <desc />
      </trkpt>
      <trkpt lat="53.8479721064559" lon="-1.84033870075383">
        <ele>92.2955999892965</ele>
        <time>2022-05-29T00:09:17.0672843</time>
        <name>WPT 007</name>
        <desc />
      </trkpt>
      <trkpt lat="53.8476054918208" lon="-1.84041305605216">
        <ele>93.7759333550911</ele>
        <time>2022-05-29T00:09:18.9874939</time>
        <name>WPT 008</name>
        <desc />
      </trkpt>
      <trkpt lat="53.84741159276" lon="-1.84059619335642">
        <ele>93.9834540485589</ele>
        <time>2022-05-29T00:09:23.6601608</time>
        <name>WPT 009</name>
        <desc />
      </trkpt>
      <trkpt lat="53.8471313598912" lon="-1.84074317684268">
        <ele>94.2669327297374</ele>
        <time>2022-05-29T00:09:33.2166244</time>
        <name>WPT 010</name>
        <desc />
      </trkpt>
      <trkpt lat="53.8468728914927" lon="-1.84103599382859">
        <ele>91.9322398826861</ele>
        <time>2022-05-29T00:09:46.8229794</time>
        <name>WPT 011</name>
        <desc />
      </trkpt>
      <trkpt lat="53.8465712315635" lon="-1.84129249129085">
        <ele>89.4956892020347</ele>
        <time>2022-05-29T00:09:48.9339059</time>
        <name>WPT 012</name>
        <desc />
      </trkpt>
      <trkpt lat="53.8459676212692" lon="-1.84158660396098">
        <ele>85.0614220354299</ele>
        <time>2022-05-29T00:09:51.8404128</time>
        <name>WPT 013</name>
        <desc />
      </trkpt>
      <trkpt lat="53.8450656356314" lon="-1.84259013501876">
        <ele>84.2339267147419</ele>
        <time>2022-05-29T00:09:53.7076948</time>
        <name>WPT 014</name>
        <desc />
      </trkpt>
      <trkpt lat="53.8453364397982" lon="-1.84347827438886">
        <ele>88.7181275020377</ele>
        <time>2022-05-29T00:09:55.813468</time>
        <name>WPT 015</name>
        <desc />
      </trkpt>
      <trkpt lat="53.8460097379778" lon="-1.84286018406543">
        <ele>84.5479732817897</ele>
        <time>2022-05-29T00:10:01.7796646</time>
        <name>WPT 016</name>
        <desc />
      </trkpt>
      <trkpt lat="53.8467368111661" lon="-1.84212787364057">
        <ele>87.2475836054415</ele>
        <time>2022-05-29T00:10:03.2672146</time>
        <name>WPT 017</name>
        <desc />
      </trkpt>
      <trkpt lat="53.8470331461422" lon="-1.84192156074181">
        <ele>88.5665104196238</ele>
        <time>2022-05-29T00:10:04.8169731</time>
        <name>WPT 018</name>
        <desc />
      </trkpt>
      <trkpt lat="53.8473163592699" lon="-1.84198889355382">
        <ele>89.6069508836931</ele>
        <time>2022-05-29T00:10:06.4201119</time>
        <name>WPT 019</name>
        <desc />
      </trkpt>
      <trkpt lat="53.8476533204095" lon="-1.84191922428809">
        <ele>90.3028242283466</ele>
        <time>2022-05-29T00:10:07.891674</time>
        <name>WPT 020</name>
        <desc />
      </trkpt>
      <trkpt lat="53.8480036733718" lon="-1.84178110251836">
        <ele>91.0162673073886</ele>
        <time>2022-05-29T00:10:13.018564</time>
        <name>WPT 021</name>
        <desc />
      </trkpt>
      <trkpt lat="53.848259952485" lon="-1.841871337888">
        <ele>90.9958097443998</ele>
        <time>2022-05-29T00:10:14.9697834</time>
        <name>WPT 022</name>
        <desc />
      </trkpt>
      <trkpt lat="53.8484625734032" lon="-1.8421669814177">
        <ele>94.0366212267704</ele>
        <time>2022-05-29T00:10:16.627305</time>
        <name>WPT 023</name>
        <desc />
      </trkpt>
      <trkpt lat="53.8487995945758" lon="-1.84214291290126">
        <ele>94.5017471321855</ele>
        <time>2022-05-29T00:10:18.3303237</time>
        <name>WPT 024</name>
        <desc />
      </trkpt>
      <trkpt lat="53.8490422414059" lon="-1.84211919911595">
        <ele>94.4435723514754</ele>
        <time>2022-05-29T00:10:22.8348925</time>
        <name>WPT 025</name>
        <desc />
      </trkpt>
      <trkpt lat="53.8490693854048" lon="-1.84225590225547">
        <ele>96.5040990934973</ele>
        <time>2022-05-29T00:10:24.3448522</time>
        <name>WPT 026</name>
        <desc />
      </trkpt>
      <trkpt lat="53.8493661402063" lon="-1.84236879175529">
        <ele>98.5299467637206</ele>
        <time>2022-05-29T00:10:26.5004725</time>
        <name>WPT 027</name>
        <desc />
      </trkpt>
      <trkpt lat="53.8497846219985" lon="-1.84277764233048">
        <ele>106.437697545367</ele>
        <time>2022-05-29T00:10:28.2050105</time>
        <name>WPT 028</name>
        <desc />
      </trkpt>
      <trkpt lat="53.8501627158246" lon="-1.84323225495378">
        <ele>111.168953850725</ele>
        <time>2022-05-29T00:10:29.6868204</time>
        <name>WPT 029</name>
        <desc />
      </trkpt>
      <trkpt lat="53.8503653630676" lon="-1.84355071992512">
        <ele>114.320611097236</ele>
        <time>2022-05-29T00:10:31.0283302</time>
        <name>WPT 030</name>
        <desc />
      </trkpt>
      <trkpt lat="53.8503529483557" lon="-1.84437162299079">
        <ele>129.593754040134</ele>
        <time>2022-05-29T00:10:32.5161031</time>
        <name>WPT 031</name>
        <desc />
      </trkpt>
      <trkpt lat="53.8506647724772" lon="-1.8457157693177">
        <ele>141.422360460123</ele>
        <time>2022-05-29T00:10:34.815265</time>
        <name>WPT 032</name>
        <desc />
      </trkpt>
      <trkpt lat="53.8508008494568" lon="-1.84669574715111">
        <ele>147.883481216734</ele>
        <time>2022-05-29T00:10:37.4749541</time>
        <name>WPT 033</name>
        <desc />
      </trkpt>
      <trkpt lat="53.8508159559155" lon="-1.84797259429264">
        <ele>158.677133678619</ele>
        <time>2022-05-29T00:10:39.5951151</time>
        <name>WPT 034</name>
        <desc />
      </trkpt>
      <trkpt lat="53.8507908602664" lon="-1.84945480310425">
        <ele>172.670321222307</ele>
        <time>2022-05-29T00:10:41.2524299</time>
        <name>WPT 035</name>
        <desc />
      </trkpt>
      <trkpt lat="53.8508731773546" lon="-1.85059460061319">
        <ele>176.342095036708</ele>
        <time>2022-05-29T00:10:42.9874697</time>
        <name>WPT 036</name>
        <desc />
      </trkpt>
      <trkpt lat="53.8510632836448" lon="-1.85168841772813">
        <ele>179.041149407814</ele>
        <time>2022-05-29T00:10:45.7080783</time>
        <name>WPT 037</name>
        <desc />
      </trkpt>
      <trkpt lat="53.8514016824836" lon="-1.85278172436905">
        <ele>185.179534017464</ele>
        <time>2022-05-29T00:10:47.5128899</time>
        <name>WPT 038</name>
        <desc />
      </trkpt>
      <trkpt lat="53.8517398233664" lon="-1.85366981716167">
        <ele>194.67823982718</ele>
        <time>2022-05-29T00:11:26.9617242</time>
        <name>WPT 039</name>
        <desc />
      </trkpt>
      <trkpt lat="53.8522268099462" lon="-1.85501347148358">
        <ele>210.408177870246</ele>
        <time>2022-05-29T00:11:31.7192929</time>
        <name>WPT 040</name>
        <desc />
      </trkpt>
      <trkpt lat="53.8525244586961" lon="-1.85587894743858">
        <ele>220.817895091822</ele>
        <time>2022-05-29T00:11:34.3098461</time>
        <name>WPT 041</name>
        <desc />
      </trkpt>
      <trkpt lat="53.8534158547418" lon="-1.85719847284448">
        <ele>227.983374014787</ele>
        <time>2022-05-29T00:11:37.1456209</time>
        <name>WPT 042</name>
        <desc />
      </trkpt>
      <trkpt lat="53.8537535288011" lon="-1.8577218020547">
        <ele>227.319161041367</ele>
        <time>2022-05-29T00:11:38.6171247</time>
        <name>WPT 043</name>
        <desc />
      </trkpt>
      <trkpt lat="53.854145747109" lon="-1.85876943894681">
        <ele>231.697729052571</ele>
        <time>2022-05-29T00:11:40.3579947</time>
        <name>WPT 044</name>
        <desc />
      </trkpt>
      <trkpt lat="53.8544037493893" lon="-1.86034201931111">
        <ele>234.946387935109</ele>
        <time>2022-05-29T00:12:01.5012236</time>
        <name>WPT 045</name>
        <desc />
      </trkpt>
      <trkpt lat="53.8545655073829" lon="-1.8603186769148">
        <ele>234.309767745893</ele>
        <time>2022-05-29T00:12:02.7360028</time>
        <name>WPT 046</name>
        <desc />
      </trkpt>
      <trkpt lat="53.8549834507389" lon="-1.86031728522034">
        <ele>232.713587477179</ele>
        <time>2022-05-29T00:12:04.8570045</time>
        <name>WPT 047</name>
        <desc />
      </trkpt>
      <trkpt lat="53.8553204752666" lon="-1.86029335867684">
        <ele>230.553762890056</ele>
        <time>2022-05-29T00:12:07.9109193</time>
        <name>WPT 048</name>
        <desc />
      </trkpt>
      <trkpt lat="53.8555906726386" lon="-1.86077135156854">
        <ele>229.038314266038</ele>
        <time>2022-05-29T00:12:09.5001012</time>
        <name>WPT 049</name>
        <desc />
      </trkpt>
      <trkpt lat="53.8553205283511" lon="-1.86033896704418">
        <ele>230.721066736632</ele>
        <time>2022-05-29T00:12:12.8067004</time>
        <name>WPT 050</name>
        <desc />
      </trkpt>
      <trkpt lat="53.8543767322174" lon="-1.86029650173984">
        <ele>235.013679394955</ele>
        <time>2022-05-29T00:12:15.3804172</time>
        <name>WPT 051</name>
        <desc />
      </trkpt>
      <trkpt lat="53.8544181047969" lon="-1.86109449630355">
        <ele>235.54404880245</ele>
        <time>2022-05-29T00:12:18.8742702</time>
        <name>WPT 052</name>
        <desc />
      </trkpt>
      <trkpt lat="53.8545811512649" lon="-1.86218854215076">
        <ele>238.050614776082</ele>
        <time>2022-05-29T00:12:20.5400839</time>
        <name>WPT 053</name>
        <desc />
      </trkpt>
      <trkpt lat="53.854660390459" lon="-1.87290612006214">
        <ele>274.511277861006</ele>
        <time>2022-05-29T00:12:27.7627804</time>
        <name>WPT 054</name>
        <desc />
      </trkpt>
      <trkpt lat="53.8541951335534" lon="-1.87931535696684">
        <ele>270.941186084496</ele>
        <time>2022-05-29T00:12:37.1784369</time>
        <name>WPT 055</name>
        <desc />
      </trkpt>
      <trkpt lat="53.8529297085526" lon="-1.88121164361783">
        <ele>271.766509336915</ele>
        <time>2022-05-29T00:12:40.3322864</time>
        <name>WPT 056</name>
        <desc />
      </trkpt>
      <trkpt lat="53.8518840438925" lon="-1.88737125176903">
        <ele>275.561374799115</ele>
        <time>2022-05-29T00:12:49.1661717</time>
        <name>WPT 057</name>
        <desc />
      </trkpt>
      <trkpt lat="53.851790181802" lon="-1.8879187600545">
        <ele>276.612065671263</ele>
        <time>2022-05-29T00:12:57.7829168</time>
        <name>WPT 058</name>
        <desc />
      </trkpt>
      <trkpt lat="53.8517532316778" lon="-1.89172684707631">
        <ele>288.771321540352</ele>
        <time>2022-05-29T00:14:39.1614805</time>
        <name>WPT 059</name>
        <desc />
      </trkpt>
      <trkpt lat="53.851012353627" lon="-1.89243561869007">
        <ele>290.353586440261</ele>
        <time>2022-05-29T00:14:41.512454</time>
        <name>WPT 060</name>
        <desc />
      </trkpt>
      <trkpt lat="53.8506890492962" lon="-1.89273287028863">
        <ele>290.416983896533</ele>
        <time>2022-05-29T00:14:43.0158215</time>
        <name>WPT 061</name>
        <desc />
      </trkpt>
      <trkpt lat="53.8501364269843" lon="-1.89289389329858">
        <ele>289.894299073792</ele>
        <time>2022-05-29T00:14:44.5502086</time>
        <name>WPT 062</name>
        <desc />
      </trkpt>
      <trkpt lat="53.8497722277343" lon="-1.89268961180483">
        <ele>288.987972424317</ele>
        <time>2022-05-29T00:14:46.9776767</time>
        <name>WPT 063</name>
        <desc />
      </trkpt>
      <trkpt lat="53.8495300588177" lon="-1.89326025909782">
        <ele>290.090359170628</ele>
        <time>2022-05-29T00:14:55.8961804</time>
        <name>WPT 064</name>
        <desc />
      </trkpt>
      <trkpt lat="53.8490712618657" lon="-1.89280540895323">
        <ele>287.696988966942</ele>
        <time>2022-05-29T00:15:03.9450126</time>
        <name>WPT 065</name>
        <desc />
      </trkpt>
      <trkpt lat="53.8488823089522" lon="-1.89257788405655">
        <ele>286.262516281224</ele>
        <time>2022-05-29T00:15:06.2986469</time>
        <name>WPT 066</name>
        <desc />
      </trkpt>
      <trkpt lat="53.8486255558351" lon="-1.89191732328794">
        <ele>282.965588645473</ele>
        <time>2022-05-29T00:15:11.2780447</time>
        <name>WPT 067</name>
        <desc />
      </trkpt>
      <trkpt lat="53.8477208712511" lon="-1.89039204473684">
        <ele>277.08514220928</ele>
        <time>2022-05-29T00:15:17.5876846</time>
        <name>WPT 068</name>
        <desc />
      </trkpt>
      <trkpt lat="53.8474915092299" lon="-1.89021024381188">
        <ele>277.469128716366</ele>
        <time>2022-05-29T00:15:22.1519353</time>
        <name>WPT 069</name>
        <desc />
      </trkpt>
      <trkpt lat="53.8470188197537" lon="-1.88932229027592">
        <ele>276.402979688074</ele>
        <time>2022-05-29T00:15:24.4043488</time>
        <name>WPT 070</name>
        <desc />
      </trkpt>
      <trkpt lat="53.8466812196429" lon="-1.88873039195255">
        <ele>276.081135288902</ele>
        <time>2022-05-29T00:15:32.1200357</time>
        <name>WPT 071</name>
        <desc />
      </trkpt>
      <trkpt lat="53.8463168223301" lon="-1.88832096955248">
        <ele>276.952433023954</ele>
        <time>2022-05-29T00:15:35.2570234</time>
        <name>WPT 072</name>
        <desc />
      </trkpt>
      <trkpt lat="53.8463173092092" lon="-1.88884535379925">
        <ele>277.675966267792</ele>
        <time>2022-05-29T00:15:38.1012201</time>
        <name>WPT 073</name>
        <desc />
      </trkpt>
      <trkpt lat="53.8463716800607" lon="-1.88932399718952">
        <ele>277.818360853327</ele>
        <time>2022-05-29T00:15:39.9885647</time>
        <name>WPT 074</name>
        <desc />
      </trkpt>
      <trkpt lat="53.8462911234853" lon="-1.88968899937467">
        <ele>277.998162622274</ele>
        <time>2022-05-29T00:15:42.0093246</time>
        <name>WPT 075</name>
        <desc />
      </trkpt>
      <trkpt lat="53.8457515885307" lon="-1.88941682895278">
        <ele>275.769059999153</ele>
        <time>2022-05-29T00:15:43.3280004</time>
        <name>WPT 076</name>
        <desc />
      </trkpt>
      <trkpt lat="53.8452660443996" lon="-1.88921291928958">
        <ele>273.241197782639</ele>
        <time>2022-05-29T00:15:46.0021085</time>
        <name>WPT 077</name>
        <desc />
      </trkpt>
      <trkpt lat="53.8449158465271" lon="-1.88957862159929">
        <ele>271.463362645731</ele>
        <time>2022-05-29T00:15:47.6366033</time>
        <name>WPT 078</name>
        <desc />
      </trkpt>
      <trkpt lat="53.8446327437945" lon="-1.88960216499606">
        <ele>269.792435281727</ele>
        <time>2022-05-29T00:15:49.3238895</time>
        <name>WPT 079</name>
        <desc />
      </trkpt>
      <trkpt lat="53.8438231454505" lon="-1.88887475830018">
        <ele>262.291714862015</ele>
        <time>2022-05-29T00:15:52.0609086</time>
        <name>WPT 080</name>
        <desc />
      </trkpt>
      <trkpt lat="53.8435936540329" lon="-1.88855619551424">
        <ele>258.077443988348</ele>
        <time>2022-05-29T00:17:12.5757551</time>
        <name>WPT 081</name>
        <desc />
      </trkpt>
      <trkpt lat="53.8434453299363" lon="-1.88853379159127">
        <ele>257.331766759541</ele>
        <time>2022-05-29T00:17:14.619105</time>
        <name>WPT 082</name>
        <desc />
      </trkpt>
      <trkpt lat="53.8432293196856" lon="-1.88821519762415">
        <ele>253.478147168444</ele>
        <time>2022-05-29T00:17:15.9526813</time>
        <name>WPT 083</name>
        <desc />
      </trkpt>
      <trkpt lat="53.8430678527492" lon="-1.88855759181137">
        <ele>256.187211592925</ele>
        <time>2022-05-29T00:17:33.5193944</time>
        <name>WPT 084</name>
        <desc />
      </trkpt>
      <trkpt lat="53.8427575528502" lon="-1.88833044143576">
        <ele>252.572288374557</ele>
        <time>2022-05-29T00:17:34.690141</time>
        <name>WPT 085</name>
        <desc />
      </trkpt>
      <trkpt lat="53.8423523450826" lon="-1.88753361702786">
        <ele>242.968916103403</ele>
        <time>2022-05-29T00:17:36.6264746</time>
        <name>WPT 086</name>
        <desc />
      </trkpt>
      <trkpt lat="53.842068964558" lon="-1.88726081167377">
        <ele>239.837740328513</ele>
        <time>2022-05-29T00:17:38.2673786</time>
        <name>WPT 087</name>
        <desc />
      </trkpt>
      <trkpt lat="53.8418127406346" lon="-1.88719310919428">
        <ele>238.965876412098</ele>
        <time>2022-05-29T00:17:46.5833056</time>
        <name>WPT 088</name>
        <desc />
      </trkpt>
      <trkpt lat="53.8416102303522" lon="-1.88689729493035">
        <ele>235.620514543658</ele>
        <time>2022-05-29T00:17:49.272981</time>
        <name>WPT 089</name>
        <desc />
      </trkpt>
      <trkpt lat="53.8412324737346" lon="-1.88662475363525">
        <ele>232.636994214254</ele>
        <time>2022-05-29T00:17:51.5945309</time>
        <name>WPT 090</name>
        <desc />
      </trkpt>
      <trkpt lat="53.840651900609" lon="-1.88573726648795">
        <ele>226.11432700096</ele>
        <time>2022-05-29T00:17:56.5200147</time>
        <name>WPT 091</name>
        <desc />
      </trkpt>
      <trkpt lat="53.8403821502318" lon="-1.88562402013296">
        <ele>225.638882456656</ele>
        <time>2022-05-29T00:17:58.5565339</time>
        <name>WPT 092</name>
        <desc />
      </trkpt>
      <trkpt lat="53.8397619088764" lon="-1.88555732292039">
        <ele>223.455102096325</ele>
        <time>2022-05-29T00:18:29.78025</time>
        <name>WPT 093</name>
        <desc />
      </trkpt>
      <trkpt lat="53.8393304602091" lon="-1.8855357037505">
        <ele>218.784065095644</ele>
        <time>2022-05-29T00:18:38.6016653</time>
        <name>WPT 094</name>
        <desc />
      </trkpt>
      <trkpt lat="53.8393031911608" lon="-1.88521664025043">
        <ele>216.51434708858</ele>
        <time>2022-05-29T00:18:42.1252162</time>
        <name>WPT 095</name>
        <desc />
      </trkpt>
      <trkpt lat="53.8387097826657" lon="-1.88501310588803">
        <ele>205.23971763682</ele>
        <time>2022-05-29T00:18:44.5838398</time>
        <name>WPT 096</name>
        <desc />
      </trkpt>
      <trkpt lat="53.8384269641064" lon="-1.88533301187933">
        <ele>201.413067938284</ele>
        <time>2022-05-29T00:18:47.4210723</time>
        <name>WPT 097</name>
        <desc />
      </trkpt>
      <trkpt lat="53.8379287781748" lon="-1.88601821731025">
        <ele>198.234676760453</ele>
        <time>2022-05-29T00:18:49.3558182</time>
        <name>WPT 098</name>
        <desc />
      </trkpt>
      <trkpt lat="53.8375387459573" lon="-1.88702223898581">
        <ele>200.670470470175</ele>
        <time>2022-05-29T00:18:51.5597737</time>
        <name>WPT 099</name>
        <desc />
      </trkpt>
      <trkpt lat="53.8373105542737" lon="-1.88809419369646">
        <ele>204.405151335376</ele>
        <time>2022-05-29T00:18:53.5689262</time>
        <name>WPT 100</name>
        <desc />
      </trkpt>
      <trkpt lat="53.8370146895288" lon="-1.88889278360586">
        <ele>206.917569470382</ele>
        <time>2022-05-29T00:18:57.0129748</time>
        <name>WPT 101</name>
        <desc />
      </trkpt>
      <trkpt lat="53.8366791039413" lon="-1.89048926138093">
        <ele>212.242520029974</ele>
        <time>2022-05-29T00:18:59.750168</time>
        <name>WPT 102</name>
        <desc />
      </trkpt>
      <trkpt lat="53.8365991225209" lon="-1.89149241009464">
        <ele>213.9965438088</ele>
        <time>2022-05-29T00:19:02.3717327</time>
        <name>WPT 103</name>
        <desc />
      </trkpt>
      <trkpt lat="53.8365323898993" lon="-1.89224478643315">
        <ele>214.660390440341</ele>
        <time>2022-05-29T00:19:03.7049592</time>
        <name>WPT 104</name>
        <desc />
      </trkpt>
      <trkpt lat="53.8362772885691" lon="-1.89343072496355">
        <ele>212.07246836332</ele>
        <time>2022-05-29T00:19:05.2768158</time>
        <name>WPT 105</name>
        <desc />
      </trkpt>
      <trkpt lat="53.834820876565" lon="-1.89304693914496">
        <ele>193.370722649007</ele>
        <time>2022-05-29T00:19:12.9076425</time>
        <name>WPT 106</name>
        <desc />
      </trkpt>
      <trkpt lat="53.8340386702806" lon="-1.89277541956335">
        <ele>184.622501209935</ele>
        <time>2022-05-29T00:19:14.9272676</time>
        <name>WPT 107</name>
        <desc />
      </trkpt>
      <trkpt lat="53.8334453760292" lon="-1.89268576539047">
        <ele>177.705214567155</ele>
        <time>2022-05-29T00:19:17.2316822</time>
        <name>WPT 108</name>
        <desc />
      </trkpt>
      <trkpt lat="53.8332564632839" lon="-1.89250391008076">
        <ele>174.631262589201</ele>
        <time>2022-05-29T00:19:18.6864653</time>
        <name>WPT 109</name>
        <desc />
      </trkpt>
      <trkpt lat="53.8331484838132" lon="-1.89236743325852">
        <ele>172.695635713344</ele>
        <time>2022-05-29T00:19:23.2127744</time>
        <name>WPT 110</name>
        <desc />
      </trkpt>
      <trkpt lat="53.8327849563176" lon="-1.89291537375894">
        <ele>170.70971036237</ele>
        <time>2022-05-29T00:19:25.3715154</time>
        <name>WPT 111</name>
        <desc />
      </trkpt>
      <trkpt lat="53.8316800718983" lon="-1.89364751737514">
        <ele>168.156050172768</ele>
        <time>2022-05-29T00:19:30.4831811</time>
        <name>WPT 112</name>
        <desc />
      </trkpt>
      <trkpt lat="53.8322980625307" lon="-1.89120723392327">
        <ele>166.83873239298</ele>
        <time>2022-05-29T00:19:34.7255582</time>
        <name>WPT 113</name>
        <desc />
      </trkpt>
      <trkpt lat="53.8324186963577" lon="-1.89043199935676">
        <ele>166.977130961155</ele>
        <time>2022-05-29T00:19:37.2781494</time>
        <name>WPT 114</name>
        <desc />
      </trkpt>
      <trkpt lat="53.8322023981207" lon="-1.88979439611233">
        <ele>167.502526756361</ele>
        <time>2022-05-29T00:19:39.6211996</time>
        <name>WPT 115</name>
        <desc />
      </trkpt>
      <trkpt lat="53.8320666939435" lon="-1.88883750380633">
        <ele>167.062862922403</ele>
        <time>2022-05-29T00:19:41.8253036</time>
        <name>WPT 116</name>
        <desc />
      </trkpt>
      <trkpt lat="53.8315395527293" lon="-1.88740304475597">
        <ele>165.637564590629</ele>
        <time>2022-05-29T00:19:43.846442</time>
        <name>WPT 117</name>
        <desc />
      </trkpt>
      <trkpt lat="53.8315661097791" lon="-1.88696993768583">
        <ele>164.13732186028</ele>
        <time>2022-05-29T00:19:45.0961635</time>
        <name>WPT 118</name>
        <desc />
      </trkpt>
      <trkpt lat="53.8314033105349" lon="-1.88589918618189">
        <ele>161.444889583206</ele>
        <time>2022-05-29T00:19:47.6387505</time>
        <name>WPT 119</name>
        <desc />
      </trkpt>
      <trkpt lat="53.8313890671651" lon="-1.88510153062805">
        <ele>159.836463973041</ele>
        <time>2022-05-29T00:19:49.0423988</time>
        <name>WPT 120</name>
        <desc />
      </trkpt>
      <trkpt lat="53.8314423388723" lon="-1.88441764602664">
        <ele>158.560762165384</ele>
        <time>2022-05-29T00:19:50.3075393</time>
        <name>WPT 121</name>
        <desc />
      </trkpt>
      <trkpt lat="53.8313202508865" lon="-1.88364308039223">
        <ele>159.205762165384</ele>
        <time>2022-05-29T00:19:54.1376256</time>
        <name>WPT 122</name>
        <desc />
      </trkpt>
      <trkpt lat="53.8315348763711" lon="-1.88252570969381">
        <ele>158.539257631641</ele>
        <time>2022-05-29T00:20:03.5561896</time>
        <name>WPT 123</name>
        <desc />
      </trkpt>
      <trkpt lat="53.8316692502741" lon="-1.88206950535475">
        <ele>157.055787651434</ele>
        <time>2022-05-29T00:20:05.3227485</time>
        <name>WPT 124</name>
        <desc />
      </trkpt>
      <trkpt lat="53.8323424786165" lon="-1.88117873471145">
        <ele>151.869339548639</ele>
        <time>2022-05-29T00:20:07.1269534</time>
        <name>WPT 125</name>
        <desc />
      </trkpt>
      <trkpt lat="53.832854005937" lon="-1.88037956481019">
        <ele>144.507989554312</ele>
        <time>2022-05-29T00:20:18.7798295</time>
        <name>WPT 126</name>
        <desc />
      </trkpt>
      <trkpt lat="53.8334464204943" lon="-1.87958014339878">
        <ele>143.432780218716</ele>
        <time>2022-05-29T00:20:22.7432517</time>
        <name>WPT 127</name>
        <desc />
      </trkpt>
      <trkpt lat="53.8341598919145" lon="-1.87850683660071">
        <ele>141.511755718882</ele>
        <time>2022-05-29T00:20:24.9836001</time>
        <name>WPT 128</name>
        <desc />
      </trkpt>
      <trkpt lat="53.8345907871193" lon="-1.87798135043706">
        <ele>139.615703632612</ele>
        <time>2022-05-29T00:20:33.0340068</time>
        <name>WPT 129</name>
        <desc />
      </trkpt>
      <trkpt lat="53.8349006433714" lon="-1.87775251806074">
        <ele>141.256970382891</ele>
        <time>2022-05-29T00:20:37.6716134</time>
        <name>WPT 130</name>
        <desc />
      </trkpt>
      <trkpt lat="53.8350887874736" lon="-1.87715934500293">
        <ele>139.26952306826</ele>
        <time>2022-05-29T00:20:39.2095304</time>
        <name>WPT 131</name>
        <desc />
      </trkpt>
      <trkpt lat="53.8353308804671" lon="-1.87658880139721">
        <ele>138.059241563555</ele>
        <time>2022-05-29T00:20:50.1458563</time>
        <name>WPT 132</name>
        <desc />
      </trkpt>
      <trkpt lat="53.8357069172698" lon="-1.87517449197803">
        <ele>136.790650759393</ele>
        <time>2022-05-29T00:20:51.803148</time>
        <name>WPT 133</name>
        <desc />
      </trkpt>
      <trkpt lat="53.8358944276537" lon="-1.87398866128968">
        <ele>137.443180096502</ele>
        <time>2022-05-29T00:20:56.6291383</time>
        <name>WPT 134</name>
        <desc />
      </trkpt>
      <trkpt lat="53.8359886586015" lon="-1.8738516158294">
        <ele>137.558184326702</ele>
        <time>2022-05-29T00:20:59.1347906</time>
        <name>WPT 135</name>
        <desc />
      </trkpt>
      <trkpt lat="53.836446809902" lon="-1.87362229885554">
        <ele>138.10585161048</ele>
        <time>2022-05-29T00:21:00.9071089</time>
        <name>WPT 136</name>
        <desc />
      </trkpt>
      <trkpt lat="53.836917283339" lon="-1.87229881477106">
        <ele>137.386642471443</ele>
        <time>2022-05-29T00:21:04.0303881</time>
        <name>WPT 137</name>
        <desc />
      </trkpt>
      <trkpt lat="53.8374153909208" lon="-1.87161346317421">
        <ele>136.753263775547</ele>
        <time>2022-05-29T00:21:07.5381992</time>
        <name>WPT 138</name>
        <desc />
      </trkpt>
      <trkpt lat="53.8376977811293" lon="-1.87092875862761">
        <ele>136.681337205966</ele>
        <time>2022-05-29T00:21:09.2890246</time>
        <name>WPT 139</name>
        <desc />
      </trkpt>
      <trkpt lat="53.8380479225297" lon="-1.87056296379418">
        <ele>136.660835939145</ele>
        <time>2022-05-29T00:21:10.9618104</time>
        <name>WPT 140</name>
        <desc />
      </trkpt>
      <trkpt lat="53.8381819543046" lon="-1.86983311185354">
        <ele>134.208229199471</ele>
        <time>2022-05-29T00:21:12.3335735</time>
        <name>WPT 141</name>
        <desc />
      </trkpt>
      <trkpt lat="53.8376420264253" lon="-1.86924212495883">
        <ele>130.675150074501</ele>
        <time>2022-05-29T00:21:14.7376463</time>
        <name>WPT 142</name>
        <desc />
      </trkpt>
      <trkpt lat="53.8369532676618" lon="-1.86817293887533">
        <ele>126.620264720671</ele>
        <time>2022-05-29T00:21:17.8066432</time>
        <name>WPT 143</name>
        <desc />
      </trkpt>
      <trkpt lat="53.8364805909514" lon="-1.86744501424421">
        <ele>127.032330674979</ele>
        <time>2022-05-29T00:21:27.2085712</time>
        <name>WPT 144</name>
        <desc />
      </trkpt>
      <trkpt lat="53.8363993454494" lon="-1.86712615494878">
        <ele>127.75039204009</ele>
        <time>2022-05-29T00:21:37.8287063</time>
        <name>WPT 145</name>
        <desc />
      </trkpt>
      <trkpt lat="53.8361968361848" lon="-1.86687606329551">
        <ele>129.297475455283</ele>
        <time>2022-05-29T00:21:40.3185441</time>
        <name>WPT 146</name>
        <desc />
      </trkpt>
      <trkpt lat="53.8359136364122" lon="-1.86680858023812">
        <ele>131.169463340119</ele>
        <time>2022-05-29T00:21:41.6913293</time>
        <name>WPT 147</name>
        <desc />
      </trkpt>
      <trkpt lat="53.8352395824669" lon="-1.86685630564346">
        <ele>135.775221712145</ele>
        <time>2022-05-29T00:21:44.1811163</time>
        <name>WPT 148</name>
        <desc />
      </trkpt>
      <trkpt lat="53.8345654019522" lon="-1.866790064929">
        <ele>141.399449000344</ele>
        <time>2022-05-29T00:21:46.5180694</time>
        <name>WPT 149</name>
        <desc />
      </trkpt>
      <trkpt lat="53.8336485689342" lon="-1.86674738916713">
        <ele>147.904592875716</ele>
        <time>2022-05-29T00:21:54.666343</time>
        <name>WPT 150</name>
        <desc />
      </trkpt>
      <trkpt lat="53.8335943618457" lon="-1.86649684409225">
        <ele>147.991086682351</ele>
        <time>2022-05-29T00:21:57.4729997</time>
        <name>WPT 151</name>
        <desc />
      </trkpt>
      <trkpt lat="53.8340107260592" lon="-1.86508237302815">
        <ele>155.274315425191</ele>
        <time>2022-05-29T00:22:00.0154331</time>
        <name>WPT 152</name>
        <desc />
      </trkpt>
      <trkpt lat="53.8341860957556" lon="-1.86517298057038">
        <ele>152.81907780709</ele>
        <time>2022-05-29T00:22:02.1195746</time>
        <name>WPT 153</name>
        <desc />
      </trkpt>
      <trkpt lat="53.8342936191686" lon="-1.86487632822713">
        <ele>154.053841658541</ele>
        <time>2022-05-29T00:22:03.3842787</time>
        <name>WPT 154</name>
        <desc />
      </trkpt>
      <trkpt lat="53.8342259003667" lon="-1.86460303247556">
        <ele>156.959670432782</ele>
        <time>2022-05-29T00:22:05.1713484</time>
        <name>WPT 155</name>
        <desc />
      </trkpt>
      <trkpt lat="53.8341314227998" lon="-1.86451216615501">
        <ele>158.695318454827</ele>
        <time>2022-05-29T00:22:06.4823582</time>
        <name>WPT 156</name>
        <desc />
      </trkpt>
      <trkpt lat="53.833969740601" lon="-1.86460385865508">
        <ele>159.714866397118</ele>
        <time>2022-05-29T00:22:07.8280027</time>
        <name>WPT 157</name>
        <desc />
      </trkpt>
      <trkpt lat="53.8338484531931" lon="-1.86464983504357">
        <ele>160.697471310001</ele>
        <time>2022-05-29T00:22:09.0942539</time>
        <name>WPT 158</name>
        <desc />
      </trkpt>
      <trkpt lat="53.8337674577497" lon="-1.86455892593625">
        <ele>162.201709018134</ele>
        <time>2022-05-29T00:22:10.2906155</time>
        <name>WPT 159</name>
        <desc />
      </trkpt>
      <trkpt lat="53.8338480412496" lon="-1.86428515468946">
        <ele>163.277374608634</ele>
        <time>2022-05-29T00:22:11.5466161</time>
        <name>WPT 160</name>
        <desc />
      </trkpt>
      <trkpt lat="53.8340093616032" lon="-1.86387436469886">
        <ele>164.785242052646</ele>
        <time>2022-05-29T00:22:12.9784681</time>
        <name>WPT 161</name>
        <desc />
      </trkpt>
      <trkpt lat="53.8341436385284" lon="-1.86339528120642">
        <ele>167.425061992976</ele>
        <time>2022-05-29T00:22:14.1122385</time>
        <name>WPT 162</name>
        <desc />
      </trkpt>
      <trkpt lat="53.8341969688947" lon="-1.8628708733829">
        <ele>169.591648436153</ele>
        <time>2022-05-29T00:22:15.4000885</time>
        <name>WPT 163</name>
        <desc />
      </trkpt>
      <trkpt lat="53.8341695089823" lon="-1.8624379002578">
        <ele>171.074590282366</ele>
        <time>2022-05-29T00:22:16.5869601</time>
        <name>WPT 164</name>
        <desc />
      </trkpt>
      <trkpt lat="53.8338180310414" lon="-1.86161851876042">
        <ele>174.631705636009</ele>
        <time>2022-05-29T00:22:18.0058158</time>
        <name>WPT 165</name>
        <desc />
      </trkpt>
      <trkpt lat="53.8325594217256" lon="-1.85754291603782">
        <ele>181.887001884322</ele>
        <time>2022-05-29T00:22:20.4111898</time>
        <name>WPT 166</name>
        <desc />
      </trkpt>
      <trkpt lat="53.8335949247991" lon="-1.85535132508323">
        <ele>178.103247279029</ele>
        <time>2022-05-29T00:22:22.4165892</time>
        <name>WPT 167</name>
        <desc />
      </trkpt>
      <trkpt lat="53.8338514139086" lon="-1.85562395263778">
        <ele>177.392802191774</ele>
        <time>2022-05-29T00:22:24.051885</time>
        <name>WPT 168</name>
        <desc />
      </trkpt>
      <trkpt lat="53.8354963655434" lon="-1.85573226268483">
        <ele>172.081838565207</ele>
        <time>2022-05-29T00:22:26.3420409</time>
        <name>WPT 169</name>
        <desc />
      </trkpt>
      <trkpt lat="53.8361829347948" lon="-1.85488652967309">
        <ele>172.095862852377</ele>
        <time>2022-05-29T00:22:27.9618955</time>
        <name>WPT 170</name>
        <desc />
      </trkpt>
      <trkpt lat="53.836654531773" lon="-1.8546569580292">
        <ele>171.878507521892</ele>
        <time>2022-05-29T00:22:29.1800833</time>
        <name>WPT 171</name>
        <desc />
      </trkpt>
      <trkpt lat="53.8371528156662" lon="-1.85419934463887">
        <ele>171.932581899025</ele>
        <time>2022-05-29T00:22:30.6832472</time>
        <name>WPT 172</name>
        <desc />
      </trkpt>
      <trkpt lat="53.8374354678395" lon="-1.85381085538991">
        <ele>169.348155407446</ele>
        <time>2022-05-29T00:22:33.512433</time>
        <name>WPT 173</name>
        <desc />
      </trkpt>
      <trkpt lat="53.837583270106" lon="-1.85340003716846">
        <ele>167.418522044333</ele>
        <time>2022-05-29T00:22:34.815611</time>
        <name>WPT 174</name>
        <desc />
      </trkpt>
      <trkpt lat="53.8382562564956" lon="-1.85248588657618">
        <ele>160.69055001071</ele>
        <time>2022-05-29T00:22:37.55329</time>
        <name>WPT 175</name>
        <desc />
      </trkpt>
      <trkpt lat="53.8384581510358" lon="-1.85221163568085">
        <ele>155.991218202032</ele>
        <time>2022-05-29T00:22:44.7141561</time>
        <name>WPT 176</name>
        <desc />
      </trkpt>
      <trkpt lat="53.8384973294442" lon="-1.85118571672327">
        <ele>155.941229973448</ele>
        <time>2022-05-29T00:22:46.3393266</time>
        <name>WPT 177</name>
        <desc />
      </trkpt>
      <trkpt lat="53.8387396955439" lon="-1.85093410950173">
        <ele>150.091781820484</ele>
        <time>2022-05-29T00:22:47.8427915</time>
        <name>WPT 178</name>
        <desc />
      </trkpt>
      <trkpt lat="53.8389416432477" lon="-1.85070543853426">
        <ele>144.481996967526</ele>
        <time>2022-05-29T00:22:52.3694562</time>
        <name>WPT 179</name>
        <desc />
      </trkpt>
      <trkpt lat="53.8394657058959" lon="-1.84931303918051">
        <ele>124.141452305371</ele>
        <time>2022-05-29T00:22:53.6921123</time>
        <name>WPT 180</name>
        <desc />
      </trkpt>
      <trkpt lat="53.8396135213912" lon="-1.84892498090251">
        <ele>118.385553008011</ele>
        <time>2022-05-29T00:22:54.8520839</time>
        <name>WPT 181</name>
        <desc />
      </trkpt>
      <trkpt lat="53.8395862700216" lon="-1.84869712173371">
        <ele>118.128843292217</ele>
        <time>2022-05-29T00:22:55.9620084</time>
        <name>WPT 182</name>
        <desc />
      </trkpt>
      <trkpt lat="53.8401907079084" lon="-1.84691685051712">
        <ele>102.044159059872</ele>
        <time>2022-05-29T00:22:58.9625661</time>
        <name>WPT 183</name>
        <desc />
      </trkpt>
      <trkpt lat="53.8407823127613" lon="-1.84566089197494">
        <ele>93.7082894287862</ele>
        <time>2022-05-29T00:23:00.672942</time>
        <name>WPT 184</name>
        <desc />
      </trkpt>
      <trkpt lat="53.8410644956328" lon="-1.84493036531473">
        <ele>89.2696118695956</ele>
        <time>2022-05-29T00:23:03.1079636</time>
        <name>WPT 185</name>
        <desc />
      </trkpt>
      <trkpt lat="53.8418592882418" lon="-1.84442589546273">
        <ele>86.4857207797168</ele>
        <time>2022-05-29T00:23:04.8806544</time>
        <name>WPT 186</name>
        <desc />
      </trkpt>
      <trkpt lat="53.8424384249242" lon="-1.84396780305984">
        <ele>85.087661873453</ele>
        <time>2022-05-29T00:23:06.6683744</time>
        <name>WPT 187</name>
        <desc />
      </trkpt>
      <trkpt lat="53.8423025939148" lon="-1.84319320316889">
        <ele>84.717707765742</ele>
        <time>2022-05-29T00:23:10.3382121</time>
        <name>WPT 188</name>
        <desc />
      </trkpt>
      <trkpt lat="53.8422212243362" lon="-1.84282875265282">
        <ele>84.9097251746884</ele>
        <time>2022-05-29T00:23:11.8885436</time>
        <name>WPT 189</name>
        <desc />
      </trkpt>
      <trkpt lat="53.8423016683126" lon="-1.84248649334256">
        <ele>84.6038764451919</ele>
        <time>2022-05-29T00:23:13.1763604</time>
        <name>WPT 190</name>
        <desc />
      </trkpt>
      <trkpt lat="53.8422605927446" lon="-1.84200790671537">
        <ele>84.7007494345957</ele>
        <time>2022-05-29T00:23:18.2545252</time>
        <name>WPT 191</name>
        <desc />
      </trkpt>
      <trkpt lat="53.8420306760763" lon="-1.84146164291811">
        <ele>85.5117565199683</ele>
        <time>2022-05-29T00:23:20.6061357</time>
        <name>WPT 192</name>
        <desc />
      </trkpt>
      <trkpt lat="53.8419628738475" lon="-1.84116553779832">
        <ele>85.6430122698936</ele>
        <time>2022-05-29T00:23:22.6956607</time>
        <name>WPT 193</name>
        <desc />
      </trkpt>
      <trkpt lat="53.842002079168" lon="-1.84023071075048">
        <ele>84.7101564526034</ele>
        <time>2022-05-29T00:23:24.4371</time>
        <name>WPT 194</name>
        <desc />
      </trkpt>
      <trkpt lat="53.8432549675514" lon="-1.8395192115335">
        <ele>78.8525729345164</ele>
        <time>2022-05-29T00:23:30.13432</time>
        <name>WPT 195</name>
        <desc />
      </trkpt>
      <trkpt lat="53.8436052569654" lon="-1.8393354886931">
        <ele>78.2371888462735</ele>
        <time>2022-05-29T00:23:31.6843427</time>
        <name>WPT 196</name>
        <desc />
      </trkpt>
      <trkpt lat="53.8438886546829" lon="-1.83953958629129">
        <ele>79.0435796980419</ele>
        <time>2022-05-29T00:23:33.0364189</time>
        <name>WPT 197</name>
        <desc />
      </trkpt>
      <trkpt lat="53.8444280283198" lon="-1.83960591894775">
        <ele>80.5052963792984</ele>
        <time>2022-05-29T00:23:35.3273099</time>
        <name>WPT 198</name>
        <desc />
      </trkpt>
      <trkpt lat="53.8444814684081" lon="-1.8392409404818">
        <ele>81.624475347065</ele>
        <time>2022-05-29T00:23:38.1000227</time>
        <name>WPT 199</name>
        <desc />
      </trkpt>
      <trkpt lat="53.8448988003378" lon="-1.83878336941883">
        <ele>85.7629272951229</ele>
        <time>2022-05-29T00:23:42.3400265</time>
        <name>WPT 200</name>
        <desc />
      </trkpt>
      <trkpt lat="53.8450875184412" lon="-1.83875984567375">
        <ele>87.2238277337326</ele>
        <time>2022-05-29T00:23:43.3425414</time>
        <name>WPT 201</name>
        <desc />
      </trkpt>
      <trkpt lat="53.8456404968992" lon="-1.83891731398832">
        <ele>90.6426447107892</ele>
        <time>2022-05-29T00:23:44.9622741</time>
        <name>WPT 202</name>
        <desc />
      </trkpt>
      <trkpt lat="53.846058776865" lon="-1.83916649999425">
        <ele>92.7903205230631</ele>
        <time>2022-05-29T00:23:46.4873308</time>
        <name>WPT 203</name>
        <desc />
      </trkpt>
      <trkpt lat="53.8463283567425" lon="-1.83911986793909">
        <ele>94.1453592430189</ele>
        <time>2022-05-29T00:23:53.9632058</time>
        <name>WPT 204</name>
        <desc />
      </trkpt>
      <trkpt lat="53.8465975999979" lon="-1.83882244165471">
        <ele>95.1751124591146</ele>
        <time>2022-05-29T00:23:55.4355001</time>
        <name>WPT 205</name>
        <desc />
      </trkpt>
      <trkpt lat="53.8472039857157" lon="-1.83859211372343">
        <ele>96.4441920809278</ele>
        <time>2022-05-29T00:23:57.2554071</time>
        <name>WPT 206</name>
        <desc />
      </trkpt>
      <trkpt lat="53.8477756715176" lon="-1.83862487484544">
        <ele>94.7630470595926</ele>
        <time>2022-05-29T00:24:05.5703688</time>
        <name>WPT 207</name>
        <desc />
      </trkpt>
      <extensions>
        <drawing v="True" pv="False" pw="4" pc="255|255|255" pt="0" lv="True" lw="4" lc="255|0|0" lt="0" ls="0" lcs="3" fc="255|255|255" ft="120" fs="-1" fsc="0|0|0" xmlns="" />
      </extensions>
    </trkseg>
  </trk>
</gpx>